createdAt,value
2023-11-07T00:00:29.925Z,97095.31
2023-11-07T00:02:57.985Z,97094.34
2023-11-07T00:05:26.445Z,97107.06
2023-11-07T00:07:54.982Z,97098.94
2023-11-07T00:10:28.878Z,97101.41
2023-11-07T00:12:58.161Z,97102.09
2023-11-07T00:15:26.829Z,97107.31
2023-11-07T00:17:55.125Z,97108.91
2023-11-07T00:20:24.005Z,97106.09
2023-11-07T00:22:51.940Z,97120.72
2023-11-07T00:25:20.048Z,97126.22
2023-11-07T00:27:49.834Z,97129.66
2023-11-07T00:30:17.828Z,97132.22
2023-11-07T00:32:45.940Z,97140.91
2023-11-07T00:35:14.577Z,97143.44
2023-11-07T00:37:42.548Z,97148.34
2023-11-07T00:40:14.344Z,97137.66
2023-11-07T00:42:43.307Z,97141.53
2023-11-07T00:45:13.150Z,97138.13
2023-11-07T00:47:41.732Z,97139.94
2023-11-07T00:50:11.839Z,97146.56
2023-11-07T00:52:41.189Z,97142.03
2023-11-07T00:55:09.981Z,97151.56
2023-11-07T00:57:38.519Z,97155.97
2023-11-07T01:00:07.720Z,97154.06
2023-11-07T01:02:37.880Z,97161.97
2023-11-07T01:05:06.947Z,97162.38
2023-11-07T01:07:35.024Z,97165.50
2023-11-07T01:10:04.013Z,97166.38
2023-11-07T01:12:32.011Z,97172.69
2023-11-07T01:15:00.292Z,97165.28
2023-11-07T01:17:29.359Z,97151.88
2023-11-07T01:19:58.867Z,97164.41
2023-11-07T01:22:27.766Z,97161.69
2023-11-07T01:24:56.173Z,97167.38
2023-11-07T01:27:24.139Z,97173.91
2023-11-07T01:29:52.186Z,97169.38
2023-11-07T01:32:21.377Z,97170.19
2023-11-07T01:34:49.360Z,97171.19
2023-11-07T01:37:19.240Z,97163.97
2023-11-07T01:39:47.278Z,97176.91
2023-11-07T01:42:15.235Z,97164.38
2023-11-07T01:44:51.215Z,97168.88
2023-11-07T01:47:20.929Z,97169.91
2023-11-07T01:49:50.333Z,97168.38
2023-11-07T01:52:21.375Z,97172.41
2023-11-07T01:54:52.655Z,97164.28
2023-11-07T01:57:22.312Z,97167.22
2023-11-07T01:59:51.250Z,97163.59
2023-11-07T02:02:20.771Z,97158.06
2023-11-07T02:04:49.730Z,97162.41
2023-11-07T02:07:19.286Z,97161.59
2023-11-07T02:09:48.348Z,97146.59
2023-11-07T02:12:16.840Z,97165.28
2023-11-07T02:14:45.145Z,97159.69
2023-11-07T02:17:13.223Z,97153.72
2023-11-07T02:19:41.910Z,97164.81
2023-11-07T02:22:12.029Z,97167.09
2023-11-07T02:24:41.876Z,97167.22
2023-11-07T02:27:09.961Z,97158.06
2023-11-07T02:29:38.925Z,97162.88
2023-11-07T02:32:08.004Z,97171.50
2023-11-07T02:34:36.049Z,97176.69
2023-11-07T02:37:04.090Z,97171.69
2023-11-07T02:39:32.867Z,97182.38
2023-11-07T02:42:02.355Z,97179.88
2023-11-07T02:44:33.354Z,97166.94
2023-11-07T02:47:01.930Z,97167.41
2023-11-07T02:49:29.956Z,97164.38
2023-11-07T02:51:58.682Z,97159.25
2023-11-07T02:54:27.144Z,97158.00
2023-11-07T02:56:55.069Z,97158.44
2023-11-07T02:59:24.384Z,97145.91
2023-11-07T03:01:53.041Z,97163.63
2023-11-07T03:04:21.260Z,97166.13
2023-11-07T03:06:49.427Z,97170.78
2023-11-07T03:09:17.974Z,97160.50
2023-11-07T03:11:46.028Z,97158.53
2023-11-07T03:14:14.157Z,97159.97
2023-11-07T03:16:44.255Z,97158.75
2023-11-07T03:19:12.466Z,97152.38
2023-11-07T03:21:40.757Z,97158.59
2023-11-07T03:24:09.959Z,97161.50
2023-11-07T03:26:38.159Z,97161.97
2023-11-07T03:29:06.554Z,97164.09
2023-11-07T03:31:35.956Z,97166.03
2023-11-07T03:34:05.473Z,97167.63
2023-11-07T03:36:34.138Z,97166.81
2023-11-07T03:39:02.415Z,97173.16
2023-11-07T03:41:30.478Z,97165.78
2023-11-07T03:43:58.961Z,97177.56
2023-11-07T03:46:27.060Z,97188.88
2023-11-07T03:48:55.800Z,97181.88
2023-11-07T03:51:25.841Z,97176.38
2023-11-07T03:53:55.154Z,97184.00
2023-11-07T03:56:23.390Z,97185.78
2023-11-07T03:58:52.142Z,97185.00
2023-11-07T04:01:20.374Z,97193.00
2023-11-07T04:03:48.795Z,97188.78
2023-11-07T04:06:17.707Z,97186.28
2023-11-07T04:08:47.349Z,97174.91
2023-11-07T04:11:16.046Z,97196.78
2023-11-07T04:13:44.519Z,97179.56
2023-11-07T04:16:12.630Z,97176.34
2023-11-07T04:18:41.116Z,97174.34
2023-11-07T04:21:10.090Z,97176.84
2023-11-07T04:23:38.523Z,97175.59
2023-11-07T04:26:09.043Z,97172.91
2023-11-07T04:28:39.477Z,97172.31
2023-11-07T04:31:08.882Z,97175.16
2023-11-07T04:33:37.802Z,97170.91
2023-11-07T04:36:07.456Z,97157.38
2023-11-07T04:38:36.713Z,97167.38
2023-11-07T04:41:06.072Z,97174.97
2023-11-07T04:43:37.471Z,97159.16
2023-11-07T04:46:06.149Z,97167.47
2023-11-07T04:48:34.534Z,97165.56
2023-11-07T04:51:04.409Z,97166.97
2023-11-07T04:53:34.255Z,97162.56
2023-11-07T04:56:03.966Z,97168.28
2023-11-07T04:58:32.589Z,97163.78
2023-11-07T05:01:03.148Z,97164.97
2023-11-07T05:03:38.632Z,97165.47
2023-11-07T05:06:09.996Z,97172.53
2023-11-07T05:08:38.320Z,97158.41
2023-11-07T05:11:06.960Z,97157.66
2023-11-07T05:13:35.063Z,97161.81
2023-11-07T05:16:05.896Z,97158.34
2023-11-07T05:18:34.260Z,97160.59
2023-11-07T05:21:03.225Z,97157.09
2023-11-07T05:23:31.474Z,97153.03
2023-11-07T05:25:59.493Z,97153.59
2023-11-07T05:28:27.992Z,97153.22
2023-11-07T05:30:56.015Z,97154.97
2023-11-07T05:33:25.643Z,97145.66
2023-11-07T05:35:54.461Z,97154.19
2023-11-07T05:38:23.478Z,97159.50
2023-11-07T05:40:52.076Z,97160.22
2023-11-07T05:43:20.915Z,97152.84
2023-11-07T05:45:49.023Z,97153.28
2023-11-07T05:48:17.758Z,97159.84
2023-11-07T05:50:47.930Z,97165.97
2023-11-07T05:53:17.733Z,97163.97
2023-11-07T05:55:46.225Z,97175.28
2023-11-07T05:58:15.607Z,97176.34
2023-11-07T06:00:44.213Z,97174.25
2023-11-07T06:03:14.769Z,97176.47
2023-11-07T06:05:45.776Z,97186.19
2023-11-07T06:08:15.750Z,97196.09
2023-11-07T06:10:44.901Z,97201.00
2023-11-07T06:13:13.144Z,97205.31
2023-11-07T06:15:41.204Z,97214.00
2023-11-07T06:18:10.175Z,97211.81
2023-11-07T06:20:38.386Z,97220.53
2023-11-07T06:23:06.934Z,97228.72
2023-11-07T06:25:37.518Z,97235.47
2023-11-07T06:28:05.729Z,97232.13
2023-11-07T06:30:36.006Z,97235.84
2023-11-07T06:33:05.119Z,97248.56
2023-11-07T06:35:33.790Z,97251.97
2023-11-07T06:38:02.061Z,97255.75
2023-11-07T06:40:30.859Z,97264.09
2023-11-07T06:43:00.661Z,97266.94
2023-11-07T06:45:28.867Z,97298.31
2023-11-07T06:47:57.609Z,97298.34
2023-11-07T06:50:27.614Z,97308.41
2023-11-07T06:52:56.056Z,97301.06
2023-11-07T06:55:26.858Z,97297.22
2023-11-07T06:57:56.785Z,97302.41
2023-11-07T07:00:27.777Z,97310.06
2023-11-07T07:02:57.892Z,97287.19
2023-11-07T07:05:27.293Z,97295.81
2023-11-07T07:07:56.339Z,97298.16
2023-11-07T07:10:26.718Z,97299.84
2023-11-07T07:12:55.032Z,97302.66
2023-11-07T07:15:23.901Z,97300.25
2023-11-07T07:17:53.544Z,97292.59
2023-11-07T07:20:23.308Z,97304.69
2023-11-07T07:22:52.108Z,97298.38
2023-11-07T07:25:22.161Z,97309.22
2023-11-07T07:27:51.699Z,97302.88
2023-11-07T07:30:23.860Z,97317.97
2023-11-07T07:32:53.813Z,97317.31
2023-11-07T07:35:23.461Z,97323.41
2023-11-07T07:37:53.779Z,97329.19
2023-11-07T07:40:27.969Z,97316.19
2023-11-07T07:42:59.482Z,97308.97
2023-11-07T07:45:32.947Z,97304.50
2023-11-07T07:48:05.189Z,97312.13
2023-11-07T07:50:34.634Z,97311.13
2023-11-07T07:53:07.886Z,97309.44
2023-11-07T07:55:38.954Z,97311.88
2023-11-07T07:58:08.206Z,97321.81
2023-11-07T08:00:39.261Z,97332.94
2023-11-07T08:03:10.434Z,97323.94
2023-11-07T08:05:42.034Z,97332.16
2023-11-07T08:08:11.834Z,97325.22
2023-11-07T08:10:41.533Z,97327.94
2023-11-07T08:13:11.932Z,97331.81
2023-11-07T08:15:40.268Z,97337.72
2023-11-07T08:18:10.610Z,97339.19
2023-11-07T08:20:39.772Z,97329.94
2023-11-07T08:23:09.172Z,97338.19
2023-11-07T08:25:37.594Z,97334.81
2023-11-07T08:28:11.167Z,97337.28
2023-11-07T08:30:39.964Z,97338.88
2023-11-07T08:33:10.101Z,97333.22
2023-11-07T08:35:40.566Z,97327.41
2023-11-07T08:38:09.068Z,97339.22
2023-11-07T08:40:38.076Z,97336.09
2023-11-07T08:43:08.156Z,97339.41
2023-11-07T08:45:36.692Z,97333.28
2023-11-07T08:48:05.666Z,97339.50
2023-11-07T08:50:36.698Z,97337.78
2023-11-07T08:53:06.974Z,97331.41
2023-11-07T08:55:35.594Z,97343.13
2023-11-07T08:58:06.842Z,97349.59
2023-11-07T09:00:35.885Z,97344.19
2023-11-07T09:03:05.569Z,97350.72
2023-11-07T09:05:35.663Z,97349.50
2023-11-07T09:08:06.011Z,97354.09
2023-11-07T09:10:34.384Z,97360.56
2023-11-07T09:13:05.015Z,97354.00
2023-11-07T09:15:33.624Z,97364.66
2023-11-07T09:18:01.969Z,97375.97
2023-11-07T09:20:30.895Z,97368.91
2023-11-07T09:23:00.597Z,97367.72
2023-11-07T09:25:29.029Z,97358.50
2023-11-07T09:27:58.321Z,97366.06
2023-11-07T09:30:26.520Z,97380.34
2023-11-07T09:32:55.562Z,97374.38
2023-11-07T09:35:24.926Z,97366.78
2023-11-07T09:37:53.257Z,97362.69
2023-11-07T09:40:26.637Z,97357.13
2023-11-07T09:42:55.975Z,97353.75
2023-11-07T09:45:25.651Z,97351.13
2023-11-07T09:47:55.198Z,97351.09
2023-11-07T09:50:25.463Z,97338.88
2023-11-07T09:52:56.384Z,97344.25
2023-11-07T09:55:31.523Z,97340.75
2023-11-07T09:58:15.559Z,97337.34
2023-11-07T10:00:47.142Z,97343.97
2023-11-07T10:03:16.978Z,97341.94
2023-11-07T10:05:49.262Z,97333.63
2023-11-07T10:08:18.729Z,97343.94
2023-11-07T10:11:11.688Z,97341.91
2023-11-07T10:13:40.423Z,97337.34
2023-11-07T10:18:50.485Z,97347.41
2023-11-07T10:21:32.892Z,97340.72
2023-11-07T10:24:02.026Z,97336.72
2023-11-07T10:26:32.960Z,97339.09
2023-11-07T10:29:19.013Z,97334.31
2023-11-07T10:32:00.725Z,97329.50
2023-11-07T10:34:30.102Z,97310.81
2023-11-07T10:37:00.076Z,97323.13
2023-11-07T10:39:28.965Z,97324.56
2023-11-07T10:41:59.922Z,97322.94
2023-11-07T10:44:30.975Z,97330.44
2023-11-07T10:47:01.979Z,97323.84
2023-11-07T10:49:32.304Z,97318.19
2023-11-07T10:52:04.674Z,97310.97
2023-11-07T10:54:33.536Z,97299.00
2023-11-07T10:57:08.310Z,97323.31
2023-11-07T10:59:41.591Z,97316.78
2023-11-07T11:02:10.999Z,97319.97
2023-11-07T11:04:43.816Z,97318.81
2023-11-07T11:07:13.333Z,97316.44
2023-11-07T11:09:42.932Z,97318.06
2023-11-07T11:12:14.677Z,97325.66
2023-11-07T11:14:43.063Z,97315.41
2023-11-07T11:17:20.518Z,97317.66
2023-11-07T11:19:58.783Z,97313.22
2023-11-07T11:22:32.343Z,97305.84
2023-11-07T11:25:15.592Z,97312.31
2023-11-07T11:27:51.203Z,97314.53
2023-11-07T11:30:19.518Z,97310.28
2023-11-07T11:33:07.230Z,97303.38
2023-11-07T11:35:39.502Z,97299.53
2023-11-07T11:38:14.114Z,97296.31
2023-11-07T11:40:56.443Z,97299.31
2023-11-07T11:43:27.774Z,97303.53
2023-11-07T11:46:00.201Z,97289.38
2023-11-07T11:49:09.303Z,97298.06
2023-11-07T11:51:39.973Z,97306.19
2023-11-07T11:54:09.638Z,97293.53
2023-11-07T11:57:05.470Z,97292.16
2023-11-07T11:59:55.510Z,97291.13
2023-11-07T12:02:41.021Z,97296.94
2023-11-07T12:05:20.249Z,97285.75
2023-11-07T12:07:49.078Z,97290.38
2023-11-07T12:10:22.658Z,97290.84
2023-11-07T12:12:59.538Z,97287.25
2023-11-07T12:15:29.815Z,97288.09
2023-11-07T12:18:00.696Z,97281.09
2023-11-07T12:20:29.068Z,97280.88
2023-11-07T12:22:57.969Z,97274.31
2023-11-07T12:25:26.513Z,97292.22
2023-11-07T12:28:06.063Z,97280.28
2023-11-07T12:30:36.669Z,97282.53
2023-11-07T12:33:07.943Z,97283.63
2023-11-07T12:35:36.175Z,97285.03
2023-11-07T12:38:07.624Z,97282.34
2023-11-07T12:40:37.670Z,97277.22
2023-11-07T12:43:09.069Z,97278.19
2023-11-07T12:45:40.601Z,97279.94
2023-11-07T12:48:11.546Z,97278.34
2023-11-07T12:50:46.381Z,97281.97
2023-11-07T12:53:16.288Z,97286.63
2023-11-07T12:55:52.974Z,97282.16
2023-11-07T12:58:28.877Z,97273.34
2023-11-07T13:01:00.117Z,97267.16
2023-11-07T13:03:34.121Z,97270.47
2023-11-07T13:06:05.480Z,97270.13
2023-11-07T13:08:36.237Z,97264.25
2023-11-07T13:11:17.549Z,97262.34
2023-11-07T13:13:46.879Z,97265.97
2023-11-07T13:16:17.695Z,97264.88
2023-11-07T13:18:46.773Z,97260.44
2023-11-07T13:21:15.301Z,97257.09
2023-11-07T13:23:43.458Z,97249.28
2023-11-07T13:26:12.446Z,97260.13
2023-11-07T13:28:43.915Z,97251.34
2023-11-07T13:31:13.962Z,97257.44
2023-11-07T13:33:45.446Z,97254.22
2023-11-07T13:36:15.912Z,97261.19
2023-11-07T13:38:47.030Z,97260.06
2023-11-07T13:41:15.625Z,97258.28
2023-11-07T13:43:44.006Z,97266.28
2023-11-07T13:46:18.119Z,97258.09
2023-11-07T13:48:50.219Z,97262.81
2023-11-07T13:51:18.675Z,97245.22
2023-11-07T13:53:46.745Z,97241.22
2023-11-07T13:56:16.245Z,97236.50
2023-11-07T13:58:44.650Z,97220.56
2023-11-07T14:01:13.471Z,97226.84
2023-11-07T14:03:42.486Z,97217.91
2023-11-07T14:06:12.561Z,97207.56
2023-11-07T14:08:41.189Z,97205.00
2023-11-07T14:11:09.289Z,97206.53
2023-11-07T14:13:37.567Z,97200.81
2023-11-07T14:16:06.733Z,97201.16
2023-11-07T14:18:35.047Z,97196.59
2023-11-07T14:21:04.783Z,97199.91
2023-11-07T14:23:34.983Z,97209.19
2023-11-07T14:26:03.835Z,97198.00
2023-11-07T14:28:34.434Z,97208.88
2023-11-07T14:31:08.408Z,97202.13
2023-11-07T14:33:37.064Z,97203.38
2023-11-07T14:36:08.757Z,97216.63
2023-11-07T14:38:38.432Z,97202.19
2023-11-07T14:41:08.628Z,97217.41
2023-11-07T14:43:37.410Z,97207.34
2023-11-07T14:46:07.051Z,97214.44
2023-11-07T14:48:35.884Z,97211.09
2023-11-07T14:51:04.533Z,97203.63
2023-11-07T14:53:32.880Z,97205.16
2023-11-07T14:56:04.329Z,97195.63
2023-11-07T14:58:34.614Z,97198.78
2023-11-07T15:01:03.341Z,97189.47
2023-11-07T15:03:32.653Z,97183.63
2023-11-07T15:06:03.780Z,97184.97
2023-11-07T15:08:32.864Z,97177.59
2023-11-07T15:11:04.475Z,97178.31
2023-11-07T15:13:33.615Z,97187.06
2023-11-07T15:16:03.238Z,97162.94
2023-11-07T15:18:32.259Z,97176.47
2023-11-07T15:21:01.269Z,97186.41
2023-11-07T15:23:29.571Z,97182.16
2023-11-07T15:25:58.290Z,97177.47
2023-11-07T15:28:29.716Z,97188.69
2023-11-07T15:30:58.823Z,97186.75
2023-11-07T15:33:28.403Z,97182.97
2023-11-07T15:35:57.969Z,97185.34
2023-11-07T15:38:27.004Z,97193.47
2023-11-07T15:40:56.232Z,97200.66
2023-11-07T15:43:25.232Z,97206.53
2023-11-07T15:45:54.933Z,97222.06
2023-11-07T15:48:23.856Z,97212.94
2023-11-07T15:50:53.372Z,97219.50
2023-11-07T15:53:21.836Z,97219.94
2023-11-07T15:55:50.513Z,97218.38
2023-11-07T15:58:19.607Z,97226.56
2023-11-07T16:00:51.108Z,97219.63
2023-11-07T16:03:21.823Z,97224.09
2023-11-07T16:05:50.595Z,97216.66
2023-11-07T16:08:19.462Z,97218.19
2023-11-07T16:10:48.273Z,97216.53
2023-11-07T16:13:18.070Z,97209.84
2023-11-07T16:15:47.798Z,97211.66
2023-11-07T16:18:17.263Z,97204.66
2023-11-07T16:20:47.047Z,97204.84
2023-11-07T16:23:15.072Z,97201.59
2023-11-07T16:25:43.312Z,97205.06
2023-11-07T16:28:11.489Z,97210.91
2023-11-07T16:30:40.192Z,97213.03
2023-11-07T16:33:11.358Z,97210.91
2023-11-07T16:35:40.330Z,97222.81
2023-11-07T16:38:14.456Z,97218.31
2023-11-07T16:40:45.184Z,97220.22
2023-11-07T16:43:14.474Z,97219.22
2023-11-07T16:45:44.039Z,97216.72
2023-11-07T16:48:13.043Z,97221.63
2023-11-07T16:50:42.117Z,97219.03
2023-11-07T16:53:11.992Z,97215.72
2023-11-07T16:55:40.892Z,97224.13
2023-11-07T16:58:09.278Z,97216.31
2023-11-07T17:00:38.535Z,97215.50
2023-11-07T17:03:07.201Z,97225.72
2023-11-07T17:05:36.884Z,97221.72
2023-11-07T17:08:08.254Z,97224.25
2023-11-07T17:10:39.287Z,97235.84
2023-11-07T17:13:07.817Z,97233.84
2023-11-07T17:15:36.301Z,97233.25
2023-11-07T17:18:08.065Z,97238.06
2023-11-07T17:20:36.933Z,97239.53
2023-11-07T17:23:05.934Z,97244.34
2023-11-07T17:25:35.791Z,97245.56
2023-11-07T17:28:05.712Z,97253.03
2023-11-07T17:30:34.191Z,97256.53
2023-11-07T17:33:02.386Z,97242.63
2023-11-07T17:35:30.962Z,97242.22
2023-11-07T17:37:59.888Z,97253.66
2023-11-07T17:40:29.278Z,97266.13
2023-11-07T17:42:57.706Z,97265.25
2023-11-07T17:45:28.152Z,97273.59
2023-11-07T17:47:56.772Z,97262.75
2023-11-07T17:50:26.513Z,97264.97
2023-11-07T17:52:54.681Z,97271.19
2023-11-07T17:55:23.777Z,97273.88
2023-11-07T17:57:52.365Z,97282.28
2023-11-07T18:00:23.126Z,97276.56
2023-11-07T18:02:54.125Z,97277.03
2023-11-07T18:05:22.593Z,97279.44
2023-11-07T18:07:51.137Z,97287.53
2023-11-07T18:10:19.842Z,97278.56
2023-11-07T18:12:48.169Z,97286.25
2023-11-07T18:15:16.792Z,97286.97
2023-11-07T18:17:45.020Z,97287.38
2023-11-07T18:20:14.958Z,97290.56
2023-11-07T18:22:43.690Z,97284.75
2023-11-07T18:25:13.113Z,97273.94
2023-11-07T18:27:43.756Z,97286.38
2023-11-07T18:30:12.358Z,97277.97
2023-11-07T18:32:40.828Z,97279.47
2023-11-07T18:35:09.782Z,97290.56
2023-11-07T18:37:39.267Z,97290.91
2023-11-07T18:40:08.907Z,97282.97
2023-11-07T18:42:37.056Z,97285.44
2023-11-07T18:45:07.122Z,97279.81
2023-11-07T18:47:35.705Z,97290.06
2023-11-07T18:50:06.677Z,97292.31
2023-11-07T18:52:35.621Z,97288.31
2023-11-07T18:55:06.732Z,97293.19
2023-11-07T18:57:35.004Z,97284.38
2023-11-07T19:00:03.634Z,97297.44
2023-11-07T19:02:31.931Z,97293.00
2023-11-07T19:05:00.730Z,97297.63
2023-11-07T19:07:29.228Z,97286.97
2023-11-07T19:09:57.640Z,97296.59
2023-11-07T19:12:29.716Z,97297.75
2023-11-07T19:14:58.216Z,97302.72
2023-11-07T19:17:26.275Z,97301.34
2023-11-07T19:19:56.446Z,97302.53
2023-11-07T19:22:24.926Z,97308.69
2023-11-07T19:24:53.549Z,97314.47
2023-11-07T19:27:23.109Z,97314.19
2023-11-07T19:29:53.096Z,97321.13
2023-11-07T19:32:21.311Z,97319.88
2023-11-07T19:34:49.712Z,97307.91
2023-11-07T19:37:18.026Z,97312.44
2023-11-07T19:39:49.141Z,97315.94
2023-11-07T19:42:17.638Z,97316.44
2023-11-07T19:44:47.803Z,97319.50
2023-11-07T19:47:17.624Z,97307.75
2023-11-07T19:49:46.310Z,97314.91
2023-11-07T19:52:14.892Z,97315.50
2023-11-07T19:54:43.648Z,97320.22
2023-11-07T19:57:12.093Z,97317.69
2023-11-07T19:59:40.540Z,97327.31
2023-11-07T20:02:09.876Z,97340.38
2023-11-07T20:04:39.413Z,97342.72
2023-11-07T20:07:07.711Z,97328.56
2023-11-07T20:09:36.649Z,97341.78
2023-11-07T20:12:05.383Z,97337.06
2023-11-07T20:14:33.960Z,97344.66
2023-11-07T20:17:02.764Z,97348.22
2023-11-07T20:19:30.912Z,97356.31
2023-11-07T20:22:00.404Z,97351.16
2023-11-07T20:24:29.307Z,97351.38
2023-11-07T20:26:57.523Z,97354.38
2023-11-07T20:29:25.932Z,97345.47
2023-11-07T20:31:54.565Z,97359.47
2023-11-07T20:34:23.103Z,97353.06
2023-11-07T20:36:51.875Z,97354.34
2023-11-07T20:39:25.861Z,97358.31
2023-11-07T20:41:53.951Z,97356.19
2023-11-07T20:44:31.675Z,97358.97
2023-11-07T20:47:04.297Z,97357.97
2023-11-07T20:49:32.704Z,97361.59
2023-11-07T20:52:03.995Z,97368.47
2023-11-07T20:54:35.646Z,97369.22
2023-11-07T20:57:04.060Z,97372.38
2023-11-07T20:59:32.271Z,97369.88
2023-11-07T21:02:01.056Z,97362.09
2023-11-07T21:04:29.291Z,97373.41
2023-11-07T21:06:57.472Z,97376.50
2023-11-07T21:09:27.055Z,97356.13
2023-11-07T21:11:57.438Z,97372.19
2023-11-07T21:14:28.444Z,97376.38
2023-11-07T21:16:56.828Z,97363.81
2023-11-07T21:19:27.110Z,97372.22
2023-11-07T21:22:01.602Z,97374.44
2023-11-07T21:24:30.064Z,97374.34
2023-11-07T21:26:59.609Z,97382.72
2023-11-07T21:29:28.414Z,97383.63
2023-11-07T21:31:56.511Z,97383.31
2023-11-07T21:34:24.646Z,97389.16
2023-11-07T21:36:53.365Z,97395.03
2023-11-07T21:39:24.024Z,97391.06
2023-11-07T21:41:54.257Z,97387.47
2023-11-07T21:44:25.250Z,97401.41
2023-11-07T21:46:55.084Z,97392.94
2023-11-07T21:49:23.790Z,97394.75
2023-11-07T21:51:51.951Z,97404.41
2023-11-07T21:54:20.616Z,97404.50
2023-11-07T21:56:49.023Z,97404.19
2023-11-07T21:59:19.441Z,97417.97
2023-11-07T22:01:50.419Z,97415.53
2023-11-07T22:04:18.567Z,97418.72
2023-11-07T22:06:46.648Z,97423.38
2023-11-07T22:09:18.503Z,97423.31
2023-11-07T22:11:46.880Z,97432.72
2023-11-07T22:14:16.151Z,97434.19
2023-11-07T22:16:45.240Z,97438.47
2023-11-07T22:19:14.753Z,97435.78
2023-11-07T22:21:43.541Z,97429.59
2023-11-07T22:24:12.403Z,97434.03
2023-11-07T22:26:41.074Z,97446.16
2023-11-07T22:29:09.249Z,97448.72
2023-11-07T22:31:37.958Z,97452.13
2023-11-07T22:34:06.349Z,97453.81
2023-11-07T22:36:35.871Z,97445.34
2023-11-07T22:39:04.898Z,97440.41
2023-11-07T22:41:33.336Z,97449.22
2023-11-07T22:44:01.460Z,97460.16
2023-11-07T22:46:32.020Z,97456.34
2023-11-07T22:49:00.326Z,97458.56
2023-11-07T22:51:28.471Z,97453.44
2023-11-07T22:53:58.519Z,97455.69
2023-11-07T22:56:27.229Z,97463.44
2023-11-07T22:58:55.560Z,97465.91
2023-11-07T23:01:26.414Z,97468.81
2023-11-07T23:03:54.498Z,97466.78
2023-11-07T23:06:24.095Z,97471.41
2023-11-07T23:08:54.439Z,97474.63
2023-11-07T23:11:23.887Z,97473.94
2023-11-07T23:13:52.113Z,97473.16
2023-11-07T23:16:21.872Z,97466.66
2023-11-07T23:18:50.131Z,97470.75
2023-11-07T23:21:18.275Z,97470.31
2023-11-07T23:23:46.904Z,97472.13
2023-11-07T23:26:14.901Z,97475.66
2023-11-07T23:28:44.304Z,97466.47
2023-11-07T23:31:12.380Z,97471.59
2023-11-07T23:33:40.654Z,97462.50
2023-11-07T23:36:10.410Z,97467.88
2023-11-07T23:38:39.143Z,97462.50
2023-11-07T23:41:07.111Z,97462.16
2023-11-07T23:43:35.150Z,97468.72
2023-11-07T23:46:05.355Z,97471.56
2023-11-07T23:48:33.528Z,97463.59
2023-11-07T23:51:05.262Z,97468.06
2023-11-07T23:53:33.393Z,97468.88
2023-11-07T23:56:01.999Z,97462.19
2023-11-07T23:58:30.644Z,97465.81
